createdAt,value
2016-05-13T00:00:12.165Z,15.36
2016-05-13T00:01:12.167Z,15.28
2016-05-13T00:02:12.014Z,15.24
2016-05-13T00:03:12.016Z,15.27
2016-05-13T00:04:12.160Z,15.27
2016-05-13T00:05:12.272Z,15.25
2016-05-13T00:06:12.244Z,15.33
2016-05-13T00:07:12.183Z,15.28
2016-05-13T00:08:12.233Z,15.29
2016-05-13T00:09:12.252Z,15.36
2016-05-13T00:10:12.035Z,15.36
2016-05-13T00:11:12.179Z,15.27
2016-05-13T00:12:12.041Z,15.25
2016-05-13T00:13:12.185Z,15.35
2016-05-13T00:14:12.046Z,15.28
2016-05-13T00:15:12.190Z,15.24
2016-05-13T00:16:12.207Z,15.27
2016-05-13T00:17:12.195Z,15.27
2016-05-13T00:18:12.197Z,15.24
2016-05-13T00:19:12.184Z,15.25
2016-05-13T00:20:12.204Z,15.25
2016-05-13T00:21:12.206Z,15.18
2016-05-13T00:22:12.209Z,15.18
2016-05-13T00:23:12.226Z,15.17
2016-05-13T00:24:11.901Z,15.22
2016-05-13T00:25:12.232Z,15.15
2016-05-13T00:26:12.219Z,15.21
2016-05-13T00:27:12.222Z,15.21
2016-05-13T00:28:12.209Z,15.24
2016-05-13T00:29:12.227Z,15.17
2016-05-13T00:30:12.214Z,15.19
2016-05-13T00:31:12.264Z,15.09
2016-05-13T00:32:12.063Z,15.14
2016-05-13T00:33:12.051Z,15.18
2016-05-13T00:34:12.209Z,15.21
2016-05-13T00:35:12.228Z,15.18
2016-05-13T00:36:12.246Z,15.24
2016-05-13T00:37:12.233Z,15.19
2016-05-13T00:38:12.235Z,15.28
2016-05-13T00:39:12.066Z,15.33
2016-05-13T00:40:12.225Z,15.28
2016-05-13T00:41:12.260Z,15.21
2016-05-13T00:42:12.263Z,15.27
2016-05-13T00:43:12.249Z,15.21
2016-05-13T00:44:12.252Z,15.21
2016-05-13T00:45:12.254Z,15.28
2016-05-13T00:46:12.241Z,15.29
2016-05-13T00:47:12.119Z,15.24
2016-05-13T00:48:12.263Z,15.25
2016-05-13T00:49:12.265Z,15.19
2016-05-13T00:50:12.252Z,15.17
2016-05-13T00:51:12.270Z,15.27
2016-05-13T00:52:12.257Z,15.27
2016-05-13T00:53:12.260Z,15.18
2016-05-13T00:54:12.262Z,15.24
2016-05-13T00:55:12.126Z,15.24
2016-05-13T00:56:12.112Z,15.24
2016-05-13T00:57:12.256Z,15.18
2016-05-13T00:58:12.274Z,15.18
2016-05-13T00:59:12.292Z,15.19
2016-05-13T01:00:12.248Z,15.15
2016-05-13T01:01:12.281Z,15.27
2016-05-13T01:02:12.295Z,15.28
2016-05-13T01:03:12.185Z,15.24
2016-05-13T01:04:12.388Z,15.21
2016-05-13T01:05:12.433Z,15.36
2016-05-13T01:06:12.465Z,15.25
2016-05-13T01:07:12.503Z,15.22
2016-05-13T01:08:12.537Z,15.33
2016-05-13T01:09:12.556Z,15.28
2016-05-13T01:10:12.559Z,15.35
2016-05-13T01:11:12.436Z,15.31
2016-05-13T01:12:12.577Z,15.35
2016-05-13T01:13:12.585Z,15.27
2016-05-13T01:14:12.609Z,15.27
2016-05-13T01:15:12.618Z,15.31
2016-05-13T01:16:12.610Z,15.27
2016-05-13T01:17:12.633Z,15.27
2016-05-13T01:18:12.637Z,15.27
2016-05-13T01:19:12.642Z,15.31
2016-05-13T01:20:12.630Z,15.35
2016-05-13T01:21:12.635Z,15.27
2016-05-13T01:22:12.624Z,15.27
2016-05-13T01:23:12.643Z,15.25
2016-05-13T01:24:16.228Z,15.24
2016-05-13T01:25:12.650Z,15.35
2016-05-13T01:26:12.342Z,15.28
2016-05-13T01:27:12.656Z,15.25
2016-05-13T01:28:12.645Z,15.37
2016-05-13T01:29:12.648Z,15.25
2016-05-13T01:30:12.681Z,15.33
2016-05-13T01:31:12.497Z,15.28
2016-05-13T01:32:12.657Z,15.27
2016-05-13T01:33:12.705Z,15.21
2016-05-13T01:34:12.677Z,15.14
2016-05-13T01:35:12.523Z,15.22
2016-05-13T01:36:12.667Z,15.22
2016-05-13T01:37:12.686Z,15.18
2016-05-13T01:38:12.673Z,15.18
2016-05-13T01:39:12.676Z,15.09
2016-05-13T01:40:12.521Z,15.06
2016-05-13T01:41:12.524Z,15.21
2016-05-13T01:42:12.684Z,15.21
2016-05-13T01:43:12.701Z,15.14
2016-05-13T01:44:12.532Z,15.15
2016-05-13T01:45:12.707Z,15.15
2016-05-13T01:46:12.678Z,15.14
2016-05-13T01:47:12.681Z,15.07
2016-05-13T01:48:12.700Z,15.04
2016-05-13T01:49:12.703Z,14.99
2016-05-13T01:50:12.721Z,15.04
2016-05-13T01:51:12.551Z,15
2016-05-13T01:52:12.554Z,15
2016-05-13T01:53:12.713Z,15.06
2016-05-13T01:54:12.700Z,15
2016-05-13T01:55:12.702Z,15.03
2016-05-13T01:56:12.705Z,15.02
2016-05-13T01:57:12.552Z,14.99
2016-05-13T01:58:12.555Z,15.1
2016-05-13T01:59:12.558Z,15.02
2016-05-13T02:00:12.560Z,14.92
2016-05-13T02:01:12.703Z,14.99
2016-05-13T02:02:12.705Z,15.14
2016-05-13T02:03:12.568Z,15.06
2016-05-13T02:04:12.711Z,15.03
2016-05-13T02:05:12.714Z,15
2016-05-13T02:06:12.576Z,14.99
2016-05-13T02:07:12.735Z,14.99
2016-05-13T02:08:12.721Z,14.97
2016-05-13T02:09:12.569Z,14.94
2016-05-13T02:10:12.743Z,14.89
2016-05-13T02:11:12.590Z,14.96
2016-05-13T02:12:12.733Z,14.91
2016-05-13T02:13:12.735Z,14.85
2016-05-13T02:14:12.722Z,14.81
2016-05-13T02:15:12.725Z,14.91
2016-05-13T02:16:12.744Z,14.91
2016-05-13T02:17:12.746Z,14.92
2016-05-13T02:18:12.812Z,14.91
2016-05-13T02:19:12.579Z,14.92
2016-05-13T02:20:12.738Z,14.82
2016-05-13T02:21:12.756Z,14.92
2016-05-13T02:22:12.759Z,14.91
2016-05-13T02:23:12.747Z,14.86
2016-05-13T02:24:12.797Z,14.86
2016-05-13T02:25:12.752Z,14.91
2016-05-13T02:26:12.755Z,14.92
2016-05-13T02:27:12.758Z,14.91
2016-05-13T02:28:12.744Z,14.82
2016-05-13T02:29:12.778Z,14.81
2016-05-13T02:30:12.750Z,14.88
2016-05-13T02:31:12.769Z,14.78
2016-05-13T02:32:12.599Z,14.86
2016-05-13T02:33:12.774Z,14.86
2016-05-13T02:34:12.776Z,14.81
2016-05-13T02:35:12.779Z,14.82
2016-05-13T02:36:12.781Z,14.77
2016-05-13T02:37:12.627Z,14.7
2016-05-13T02:38:12.631Z,14.78
2016-05-13T02:39:12.774Z,14.69
2016-05-13T02:40:12.777Z,14.66
2016-05-13T02:41:12.779Z,14.73
2016-05-13T02:42:12.782Z,14.7
2016-05-13T02:43:12.785Z,14.79
2016-05-13T02:44:12.787Z,14.82
2016-05-13T02:45:12.806Z,14.68
2016-05-13T02:46:12.793Z,14.77
2016-05-13T02:47:12.779Z,14.82
2016-05-13T02:48:12.642Z,14.85
2016-05-13T02:49:12.629Z,14.86
2016-05-13T02:50:12.804Z,14.79
2016-05-13T02:51:12.791Z,14.79
2016-05-13T02:52:12.793Z,14.86
2016-05-13T02:53:12.811Z,14.85
2016-05-13T02:54:12.798Z,14.84
2016-05-13T02:55:12.801Z,14.85
2016-05-13T02:56:12.803Z,14.73
2016-05-13T02:57:12.807Z,14.82
2016-05-13T02:58:12.669Z,14.82
2016-05-13T02:59:12.828Z,14.77
2016-05-13T03:00:12.799Z,14.78
2016-05-13T03:01:12.646Z,14.78
2016-05-13T03:02:12.789Z,14.62
2016-05-13T03:03:12.807Z,14.66
2016-05-13T03:04:12.669Z,14.62
2016-05-13T03:05:12.657Z,14.69
2016-05-13T03:06:12.816Z,14.72
2016-05-13T03:07:12.662Z,14.65
2016-05-13T03:08:12.680Z,14.66
2016-05-13T03:09:12.668Z,14.6
2016-05-13T03:10:12.827Z,14.65
2016-05-13T03:11:12.813Z,14.68
2016-05-13T03:12:12.832Z,14.7
2016-05-13T03:13:12.834Z,14.59
2016-05-13T03:14:12.837Z,14.58
2016-05-13T03:15:12.824Z,14.7
2016-05-13T03:16:12.842Z,14.66
2016-05-13T03:17:12.517Z,14.62
2016-05-13T03:18:12.848Z,14.62
2016-05-13T03:19:12.834Z,14.63
2016-05-13T03:20:12.837Z,14.65
2016-05-13T03:21:12.839Z,14.68
2016-05-13T03:22:12.858Z,14.59
2016-05-13T03:23:12.721Z,14.63
2016-05-13T03:24:12.864Z,14.68
2016-05-13T03:25:12.851Z,14.68
2016-05-13T03:26:12.838Z,14.7
2016-05-13T03:27:12.841Z,14.69
2016-05-13T03:28:12.844Z,14.65
2016-05-13T03:29:12.877Z,14.69
2016-05-13T03:30:12.849Z,14.65
2016-05-13T03:31:12.852Z,14.68
2016-05-13T03:32:12.854Z,14.66
2016-05-13T03:33:12.716Z,14.62
2016-05-13T03:34:12.844Z,14.6
2016-05-13T03:35:12.878Z,14.66
2016-05-13T03:36:12.850Z,14.68
2016-05-13T03:37:12.868Z,14.65
2016-05-13T03:38:12.871Z,14.65
2016-05-13T03:39:12.857Z,14.65
2016-05-13T03:40:12.876Z,14.69
2016-05-13T03:41:12.878Z,14.63
2016-05-13T03:42:12.866Z,14.66
2016-05-13T03:43:12.852Z,14.68
2016-05-13T03:44:12.855Z,14.69
2016-05-13T03:45:12.890Z,14.68
2016-05-13T03:46:12.876Z,14.66
2016-05-13T03:47:12.895Z,14.53
2016-05-13T03:48:12.898Z,14.59
2016-05-13T03:49:12.884Z,14.59
2016-05-13T03:50:12.871Z,14.58
2016-05-13T03:51:12.874Z,14.43
2016-05-13T03:52:12.876Z,14.4
2016-05-13T03:53:12.911Z,14.48
2016-05-13T03:54:12.882Z,14.45
2016-05-13T03:55:12.885Z,14.41
2016-05-13T03:56:12.731Z,14.48
2016-05-13T03:57:12.750Z,14.45
2016-05-13T03:58:12.908Z,14.5
2016-05-13T03:59:12.880Z,14.47
2016-05-13T04:00:12.883Z,14.44
2016-05-13T04:01:12.885Z,14.4
2016-05-13T04:02:12.904Z,14.43
2016-05-13T04:03:12.906Z,14.44
2016-05-13T04:04:12.894Z,14.51
2016-05-13T04:05:12.896Z,14.51
2016-05-13T04:06:12.742Z,14.48
2016-05-13T04:07:12.885Z,14.41
2016-05-13T04:08:12.905Z,14.37
2016-05-13T04:09:12.907Z,14.43
2016-05-13T04:10:12.910Z,14.43
2016-05-13T04:11:12.896Z,14.41
2016-05-13T04:12:12.915Z,14.4
2016-05-13T04:13:12.902Z,14.4
2016-05-13T04:14:12.905Z,14.41
2016-05-13T04:15:12.751Z,14.36
2016-05-13T04:16:12.754Z,14.36
2016-05-13T04:17:12.896Z,14.41
2016-05-13T04:18:12.899Z,14.32
2016-05-13T04:19:12.918Z,14.35
2016-05-13T04:20:12.921Z,14.41
2016-05-13T04:21:12.924Z,14.33
2016-05-13T04:22:12.926Z,14.35
2016-05-13T04:23:12.929Z,14.36
2016-05-13T04:24:12.759Z,14.36
2016-05-13T04:25:12.934Z,14.43
2016-05-13T04:26:12.952Z,14.41
2016-05-13T04:27:12.768Z,14.44
2016-05-13T04:28:12.755Z,14.45
2016-05-13T04:29:12.929Z,14.51
2016-05-13T04:30:12.792Z,14.53
2016-05-13T04:31:12.919Z,14.47
2016-05-13T04:32:12.922Z,14.5
2016-05-13T04:33:13.096Z,14.51
2016-05-13T04:34:12.942Z,14.54
2016-05-13T04:35:12.633Z,14.58
2016-05-13T04:36:12.933Z,14.6
2016-05-13T04:37:12.950Z,14.63
2016-05-13T04:38:12.938Z,14.58
2016-05-13T04:39:12.941Z,14.59
2016-05-13T04:40:12.944Z,14.65
2016-05-13T04:41:12.946Z,14.59
2016-05-13T04:42:12.980Z,14.53
2016-05-13T04:43:12.951Z,14.59
2016-05-13T04:44:12.954Z,14.6
2016-05-13T04:45:12.800Z,14.59
2016-05-13T04:46:12.788Z,14.63
2016-05-13T04:47:12.807Z,14.59
2016-05-13T04:48:13.105Z,14.6
2016-05-13T04:49:12.951Z,14.54
2016-05-13T04:50:12.954Z,14.54
2016-05-13T04:51:12.956Z,14.66
2016-05-13T04:52:12.975Z,14.62
2016-05-13T04:53:12.948Z,14.63
2016-05-13T04:54:12.950Z,14.54
2016-05-13T04:55:12.952Z,14.66
2016-05-13T04:56:12.970Z,14.62
2016-05-13T04:57:12.958Z,14.63
2016-05-13T04:58:12.804Z,14.59
2016-05-13T04:59:12.979Z,14.6
2016-05-13T05:00:12.966Z,14.54
2016-05-13T05:01:12.969Z,14.59
2016-05-13T05:02:13.002Z,14.53
2016-05-13T05:03:12.958Z,14.55
2016-05-13T05:04:12.961Z,14.55
2016-05-13T05:05:12.980Z,14.59
2016-05-13T05:06:12.998Z,14.58
2016-05-13T05:07:12.985Z,14.66
2016-05-13T05:08:12.972Z,14.54
2016-05-13T05:09:12.990Z,14.58
2016-05-13T05:10:12.836Z,14.58
2016-05-13T05:11:12.995Z,14.6
2016-05-13T05:12:12.858Z,14.58
2016-05-13T05:13:12.985Z,14.54
2016-05-13T05:14:12.988Z,14.6
2016-05-13T05:15:12.975Z,14.63
2016-05-13T05:16:12.993Z,14.58
2016-05-13T05:17:12.996Z,14.62
2016-05-13T05:18:13.014Z,14.54
2016-05-13T05:19:12.985Z,14.65
2016-05-13T05:20:13.004Z,14.55
2016-05-13T05:21:13.023Z,14.63
2016-05-13T05:22:12.993Z,14.65
2016-05-13T05:23:13.012Z,14.66
2016-05-13T05:24:12.701Z,14.66
2016-05-13T05:25:13.018Z,14.7
2016-05-13T05:26:13.036Z,14.66
2016-05-13T05:27:13.007Z,14.68
2016-05-13T05:28:13.009Z,14.65
2016-05-13T05:29:12.997Z,14.66
2016-05-13T05:30:13.046Z,14.66
2016-05-13T05:31:13.017Z,14.65
2016-05-13T05:32:12.709Z,14.66
2016-05-13T05:33:12.867Z,14.69
2016-05-13T05:34:13.026Z,14.65
2016-05-13T05:35:12.888Z,14.68
2016-05-13T05:36:12.859Z,14.65
2016-05-13T05:37:13.019Z,14.69
2016-05-13T05:38:13.036Z,14.73
2016-05-13T05:39:12.867Z,14.63
2016-05-13T05:40:13.027Z,14.68
2016-05-13T05:41:13.030Z,14.63
2016-05-13T05:42:13.016Z,14.69
2016-05-13T05:43:13.035Z,14.62
2016-05-13T05:44:12.880Z,14.62
2016-05-13T05:45:13.024Z,14.66
2016-05-13T05:46:13.026Z,14.65
2016-05-13T05:47:13.045Z,14.68
2016-05-13T05:48:13.033Z,14.72
2016-05-13T05:49:13.019Z,14.85
2016-05-13T05:50:13.054Z,14.84
2016-05-13T05:51:13.040Z,14.88
2016-05-13T05:52:13.043Z,14.89
2016-05-13T05:53:13.030Z,14.89
2016-05-13T05:54:12.892Z,14.92
2016-05-13T05:55:12.926Z,14.85
2016-05-13T05:56:13.053Z,14.86
2016-05-13T05:57:13.041Z,14.72
2016-05-13T05:58:13.043Z,14.7
2016-05-13T05:59:12.906Z,14.7
2016-05-13T06:00:13.034Z,14.72
2016-05-13T06:01:12.911Z,14.7
2016-05-13T06:02:13.054Z,14.65
2016-05-13T06:03:13.056Z,14.6
2016-05-13T06:04:12.888Z,14.66
2016-05-13T06:05:13.062Z,14.66
2016-05-13T06:06:12.925Z,14.62
2016-05-13T06:07:13.052Z,14.66
2016-05-13T06:08:13.055Z,14.66
2016-05-13T06:09:12.917Z,14.63
2016-05-13T06:10:13.076Z,14.7
2016-05-13T06:11:13.063Z,14.66
2016-05-13T06:12:13.080Z,14.68
2016-05-13T06:13:12.912Z,14.65
2016-05-13T06:14:12.915Z,14.62
2016-05-13T06:15:13.074Z,14.66
2016-05-13T06:16:13.076Z,14.68
2016-05-13T06:17:13.063Z,14.63
2016-05-13T06:18:13.285Z,14.72
2016-05-13T06:19:12.913Z,14.62
2016-05-13T06:20:13.088Z,14.65
2016-05-13T06:21:13.074Z,14.65
2016-05-13T06:22:13.077Z,14.65
2016-05-13T06:23:13.096Z,14.65
2016-05-13T06:24:13.082Z,14.63
2016-05-13T06:25:12.945Z,14.63
2016-05-13T06:26:12.947Z,14.65
2016-05-13T06:27:13.090Z,14.73
2016-05-13T06:28:13.093Z,14.69
2016-05-13T06:29:13.096Z,14.77
2016-05-13T06:30:13.083Z,14.79
2016-05-13T06:31:13.086Z,14.84
2016-05-13T06:32:12.947Z,14.81
2016-05-13T06:33:12.951Z,14.82
2016-05-13T06:34:13.094Z,14.68
2016-05-13T06:35:12.939Z,14.7
2016-05-13T06:36:13.114Z,14.79
2016-05-13T06:37:13.133Z,14.77
2016-05-13T06:38:13.104Z,14.79
2016-05-13T06:39:12.951Z,14.82
2016-05-13T06:40:13.110Z,14.72
2016-05-13T06:41:13.127Z,14.79
2016-05-13T06:42:13.099Z,14.89
2016-05-13T06:43:13.119Z,14.91
2016-05-13T06:44:12.963Z,14.91
2016-05-13T06:45:13.107Z,14.92
2016-05-13T06:46:12.969Z,15
2016-05-13T06:47:13.113Z,14.91
2016-05-13T06:48:12.960Z,14.99
2016-05-13T06:49:13.134Z,14.96
2016-05-13T06:50:12.965Z,14.92
2016-05-13T06:51:13.154Z,15
2016-05-13T06:52:13.126Z,15.1
2016-05-13T06:53:12.988Z,15.15
2016-05-13T06:54:13.131Z,15.03
2016-05-13T06:55:13.134Z,15.19
2016-05-13T06:56:13.137Z,15.17
2016-05-13T06:57:12.999Z,15.31
2016-05-13T06:58:12.987Z,15.29
2016-05-13T06:59:12.848Z,15.39
2016-05-13T07:00:13.163Z,15.28
2016-05-13T07:01:12.995Z,15.25
2016-05-13T07:02:13.170Z,15.36
2016-05-13T07:03:13.015Z,15.39
2016-05-13T07:04:13.175Z,15.49
2016-05-13T07:05:13.161Z,15.42
2016-05-13T07:06:13.164Z,15.52
2016-05-13T07:07:13.011Z,15.55
2016-05-13T07:08:13.185Z,15.67
2016-05-13T07:09:13.156Z,15.64
2016-05-13T07:10:13.174Z,15.68
2016-05-13T07:11:13.162Z,15.59
2016-05-13T07:12:13.024Z,15.62
2016-05-13T07:13:13.166Z,15.64
2016-05-13T07:14:13.014Z,15.58
2016-05-13T07:15:13.204Z,15.73
2016-05-13T07:16:13.175Z,15.68
2016-05-13T07:17:13.194Z,15.67
2016-05-13T07:18:13.180Z,15.61
2016-05-13T07:19:13.026Z,15.76
2016-05-13T07:20:13.202Z,15.73
2016-05-13T07:21:15.548Z,15.62
2016-05-13T07:22:13.207Z,15.67
2016-05-13T07:23:13.194Z,15.64
2016-05-13T07:24:13.182Z,15.55
2016-05-13T07:25:13.184Z,15.55
2016-05-13T07:26:13.217Z,15.61
2016-05-13T07:27:13.221Z,15.54
2016-05-13T07:28:13.207Z,15.59
2016-05-13T07:29:13.210Z,15.62
2016-05-13T07:30:13.229Z,15.57
2016-05-13T07:31:13.215Z,15.52
2016-05-13T07:32:13.218Z,15.67
2016-05-13T07:33:13.206Z,15.62
2016-05-13T07:34:13.239Z,15.67
2016-05-13T07:35:13.226Z,15.65
2016-05-13T07:36:13.228Z,15.64
2016-05-13T07:37:13.231Z,15.7
2016-05-13T07:38:13.078Z,15.7
2016-05-13T07:39:13.237Z,15.62
2016-05-13T07:40:13.224Z,15.64
2016-05-13T07:41:13.242Z,15.64
2016-05-13T07:42:13.245Z,15.61
2016-05-13T07:43:13.248Z,15.57
2016-05-13T07:44:13.095Z,15.55
2016-05-13T07:45:13.253Z,15.68
2016-05-13T07:46:13.255Z,15.62
2016-05-13T07:47:13.258Z,15.67
2016-05-13T07:48:13.964Z,15.64
2016-05-13T07:49:13.264Z,15.58
2016-05-13T07:50:13.267Z,15.57
2016-05-13T07:51:13.269Z,15.49
2016-05-13T07:52:13.272Z,15.43
2016-05-13T07:53:13.135Z,15.44
2016-05-13T07:54:13.262Z,15.4
2016-05-13T07:55:13.280Z,15.52
2016-05-13T07:56:13.282Z,15.43
2016-05-13T07:57:13.113Z,15.43
2016-05-13T07:58:13.179Z,15.44
2016-05-13T07:59:13.276Z,15.47
2016-05-13T08:00:13.309Z,15.54
2016-05-13T08:01:13.124Z,15.52
2016-05-13T08:02:13.299Z,15.57
2016-05-13T08:03:13.301Z,15.58
2016-05-13T08:04:13.320Z,15.51
2016-05-13T08:05:13.291Z,15.42
2016-05-13T08:06:13.420Z,15.47
2016-05-13T08:07:13.281Z,15.43
2016-05-13T08:08:13.143Z,15.42
2016-05-13T08:09:13.303Z,15.39
2016-05-13T08:10:13.368Z,15.39
2016-05-13T08:11:13.323Z,15.43
2016-05-13T08:12:13.138Z,15.42
2016-05-13T08:13:13.313Z,15.44
2016-05-13T08:14:13.347Z,15.46
2016-05-13T08:15:13.147Z,15.57
2016-05-13T08:16:13.322Z,15.49
2016-05-13T08:17:13.167Z,15.52
2016-05-13T08:18:13.342Z,15.49
2016-05-13T08:19:13.330Z,15.57
2016-05-13T08:20:13.332Z,15.54
2016-05-13T08:21:13.194Z,15.55
2016-05-13T08:22:13.352Z,15.51
2016-05-13T08:23:13.356Z,15.58
2016-05-13T08:24:13.327Z,15.61
2016-05-13T08:25:13.329Z,15.64
2016-05-13T08:26:13.208Z,15.65
2016-05-13T08:27:13.429Z,15.7
2016-05-13T08:28:13.369Z,15.75
2016-05-13T08:29:13.340Z,15.83
2016-05-13T08:30:13.343Z,15.8
2016-05-13T08:31:13.346Z,15.88
2016-05-13T08:32:13.207Z,15.84
2016-05-13T08:33:13.367Z,15.84
2016-05-13T08:34:13.213Z,15.9
2016-05-13T08:35:13.356Z,15.98
2016-05-13T08:36:13.359Z,15.98
2016-05-13T08:37:13.362Z,15.86
2016-05-13T08:38:13.365Z,15.9
2016-05-13T08:39:13.368Z,15.97
2016-05-13T08:40:13.370Z,15.97
2016-05-13T08:41:13.373Z,16.02
2016-05-13T08:42:13.375Z,16
2016-05-13T08:43:13.378Z,15.9
2016-05-13T08:44:13.225Z,15.86
2016-05-13T08:45:13.399Z,15.92
2016-05-13T08:46:13.402Z,15.84
2016-05-13T08:47:13.389Z,15.9
2016-05-13T08:48:13.548Z,15.84
2016-05-13T08:49:13.410Z,15.94
2016-05-13T08:50:13.381Z,15.84
2016-05-13T08:51:13.399Z,15.9
2016-05-13T08:52:13.402Z,15.9
2016-05-13T08:53:13.093Z,15.84
2016-05-13T08:54:13.252Z,15.83
2016-05-13T08:55:13.410Z,15.86
2016-05-13T08:56:13.397Z,15.84
2016-05-13T08:57:13.400Z,15.88
2016-05-13T08:58:13.434Z,15.92
2016-05-13T08:59:13.421Z,15.88
2016-05-13T09:00:13.440Z,15.84
2016-05-13T09:01:13.427Z,15.84
2016-05-13T09:02:13.445Z,15.86
2016-05-13T09:03:13.760Z,15.95
2016-05-13T09:04:13.418Z,15.97
2016-05-13T09:05:13.437Z,16.05
2016-05-13T09:06:13.424Z,16.04
2016-05-13T09:07:13.426Z,16.02
2016-05-13T09:08:13.445Z,16
2016-05-13T09:09:13.292Z,16.04
2016-05-13T09:10:13.435Z,16.01
2016-05-13T09:11:13.437Z,16.05
2016-05-13T09:12:13.456Z,16.05
2016-05-13T09:13:13.287Z,16.04
2016-05-13T09:14:13.493Z,16.02
2016-05-13T09:15:13.480Z,15.98
2016-05-13T09:16:13.514Z,16.05
2016-05-13T09:17:13.453Z,15.98
2016-05-13T09:18:13.972Z,15.95
2016-05-13T09:19:13.459Z,15.95
2016-05-13T09:20:13.462Z,15.95
2016-05-13T09:21:13.480Z,15.83
2016-05-13T09:22:13.467Z,15.86
2016-05-13T09:23:13.345Z,15.82
2016-05-13T09:24:13.316Z,15.84
2016-05-13T09:25:13.304Z,15.73
2016-05-13T09:26:13.494Z,15.7
2016-05-13T09:27:13.497Z,15.65
2016-05-13T09:28:13.499Z,15.7
2016-05-13T09:29:13.486Z,15.73
2016-05-13T09:30:13.488Z,15.68
2016-05-13T09:31:13.507Z,15.8
2016-05-13T09:32:13.494Z,15.77
2016-05-13T09:33:13.497Z,15.75
2016-05-13T09:34:13.515Z,15.8
2016-05-13T09:35:13.346Z,15.8
2016-05-13T09:36:13.505Z,15.82
2016-05-13T09:37:13.351Z,15.72
2016-05-13T09:38:13.526Z,15.79
2016-05-13T09:39:14.762Z,15.72
2016-05-13T09:40:13.532Z,15.72
2016-05-13T09:41:13.597Z,15.75
2016-05-13T09:42:13.521Z,15.61
2016-05-13T09:43:13.523Z,15.68
2016-05-13T09:44:13.526Z,15.49
2016-05-13T09:45:13.514Z,15.54
2016-05-13T09:46:13.360Z,15.42
2016-05-13T09:47:13.519Z,15.43
2016-05-13T09:48:15.287Z,15.43
2016-05-13T09:49:13.555Z,15.35
2016-05-13T09:50:13.542Z,15.28
2016-05-13T09:51:13.530Z,15.22
2016-05-13T09:52:13.532Z,15.22
2016-05-13T09:53:13.535Z,15.24
2016-05-13T09:54:13.553Z,15.27
2016-05-13T09:55:13.384Z,15.28
2016-05-13T09:56:13.543Z,15.22
2016-05-13T09:57:13.546Z,15.33
2016-05-13T09:58:13.532Z,15.37
2016-05-13T09:59:13.552Z,15.49
2016-05-13T10:00:13.554Z,15.43
2016-05-13T10:01:13.557Z,15.44
2016-05-13T10:02:13.559Z,15.55
2016-05-13T10:03:13.749Z,15.51
2016-05-13T10:04:13.627Z,15.55
2016-05-13T10:05:13.442Z,15.54
2016-05-13T10:06:13.414Z,15.62
2016-05-13T10:07:13.573Z,15.64
2016-05-13T10:08:13.578Z,15.57
2016-05-13T10:09:13.655Z,15.62
2016-05-13T10:10:13.685Z,15.62
2016-05-13T10:11:13.715Z,15.58
2016-05-13T10:12:13.760Z,15.54
2016-05-13T10:13:13.794Z,15.59
2016-05-13T10:14:13.828Z,15.44
2016-05-13T10:15:13.830Z,15.4
2016-05-13T10:16:13.707Z,15.44
2016-05-13T10:17:13.726Z,15.42
2016-05-13T10:18:13.926Z,15.51
2016-05-13T10:19:13.934Z,15.46
2016-05-13T10:20:13.911Z,15.44
2016-05-13T10:21:13.934Z,15.4
2016-05-13T10:22:13.755Z,15.43
2016-05-13T10:23:13.918Z,15.36
2016-05-13T10:24:13.922Z,15.37
2016-05-13T10:25:13.958Z,15.36
2016-05-13T10:26:13.776Z,15.35
2016-05-13T10:27:13.953Z,15.39
2016-05-13T10:28:13.956Z,15.36
2016-05-13T10:29:13.944Z,15.27
2016-05-13T10:30:13.963Z,15.25
2016-05-13T10:31:13.825Z,15.25
2016-05-13T10:32:13.970Z,15.31
2016-05-13T10:33:14.614Z,15.28
2016-05-13T10:34:13.976Z,15.24
2016-05-13T10:35:13.838Z,15.25
2016-05-13T10:36:13.858Z,15.28
2016-05-13T10:37:13.970Z,15.21
2016-05-13T10:38:13.972Z,15.24
2016-05-13T10:39:13.975Z,15.25
2016-05-13T10:40:13.963Z,15.24
2016-05-13T10:41:13.981Z,15.27
2016-05-13T10:42:13.843Z,15.36
2016-05-13T10:43:13.986Z,15.36
2016-05-13T10:44:14.005Z,15.27
2016-05-13T10:45:13.991Z,15.24
2016-05-13T10:46:13.994Z,15.35
2016-05-13T10:47:13.996Z,15.36
2016-05-13T10:48:14.609Z,15.37
2016-05-13T10:49:14.018Z,15.49
2016-05-13T10:50:13.990Z,15.42
2016-05-13T10:51:13.836Z,15.51
2016-05-13T10:52:13.996Z,15.57
2016-05-13T10:53:13.841Z,15.43
2016-05-13T10:54:14.000Z,15.46
2016-05-13T10:55:14.003Z,15.44
2016-05-13T10:56:14.006Z,15.42
2016-05-13T10:57:13.867Z,15.47
2016-05-13T10:58:14.012Z,15.47
2016-05-13T10:59:13.857Z,15.49
2016-05-13T11:00:14.812Z,15.57
2016-05-13T11:01:14.034Z,15.55
2016-05-13T11:02:14.037Z,15.52
2016-05-13T11:03:14.306Z,15.51
2016-05-13T11:04:14.027Z,15.61
2016-05-13T11:05:14.045Z,15.65
2016-05-13T11:06:14.017Z,15.61
2016-05-13T11:07:14.035Z,15.73
2016-05-13T11:08:14.038Z,15.77
2016-05-13T11:09:14.041Z,15.84
2016-05-13T11:10:13.887Z,15.86
2016-05-13T11:11:14.061Z,15.9
2016-05-13T11:12:14.049Z,15.94
2016-05-13T11:13:14.052Z,15.97
2016-05-13T11:14:14.069Z,15.92
2016-05-13T11:15:13.900Z,16.02
2016-05-13T11:16:14.059Z,16.1
2016-05-13T11:17:14.077Z,16.09
2016-05-13T11:18:14.830Z,16.17
2016-05-13T11:19:14.068Z,16.09
2016-05-13T11:20:14.085Z,16.04
2016-05-13T11:21:13.916Z,16.12
2016-05-13T11:22:14.107Z,16.1
2016-05-13T11:23:14.079Z,16.1
2016-05-13T11:24:13.924Z,16.09
2016-05-13T11:25:14.099Z,16.08
2016-05-13T11:26:14.087Z,16.12
2016-05-13T11:27:15.307Z,16.24
2016-05-13T11:28:14.092Z,16.29
2016-05-13T11:29:14.110Z,16.23
2016-05-13T11:30:13.925Z,16.33
2016-05-13T11:31:14.100Z,16.32
2016-05-13T11:32:13.946Z,16.36
2016-05-13T11:33:14.058Z,16.41
2016-05-13T11:34:14.045Z,16.39
2016-05-13T11:35:13.939Z,16.43
2016-05-13T11:36:14.097Z,16.47
2016-05-13T11:37:14.131Z,16.47
2016-05-13T11:38:14.134Z,16.5
2016-05-13T11:39:14.122Z,16.56
2016-05-13T11:40:14.108Z,16.53
2016-05-13T11:41:14.111Z,16.71
2016-05-13T11:42:14.129Z,16.78
2016-05-13T11:43:14.132Z,16.84
2016-05-13T11:44:13.978Z,16.86
2016-05-13T11:45:13.965Z,16.93
2016-05-13T11:46:14.124Z,16.91
2016-05-13T11:47:14.143Z,16.99
2016-05-13T11:48:13.974Z,17.19
2016-05-13T11:49:14.149Z,17.24
2016-05-13T11:50:13.823Z,17.36
2016-05-13T11:51:14.185Z,17.51
2016-05-13T11:52:14.171Z,17.56
2016-05-13T11:53:14.018Z,17.63
2016-05-13T11:54:14.177Z,17.67
2016-05-13T11:55:14.165Z,17.68
2016-05-13T11:56:13.870Z,17.78
2016-05-13T11:57:14.185Z,17.82
2016-05-13T11:58:14.173Z,17.97
2016-05-13T11:59:14.190Z,18.04
2016-05-13T12:00:14.209Z,18.11
2016-05-13T12:01:14.211Z,18.37
2016-05-13T12:02:14.215Z,18.45
2016-05-13T12:03:13.904Z,18.34
2016-05-13T12:04:14.204Z,18.49
2016-05-13T12:05:14.207Z,18.35
2016-05-13T12:06:14.240Z,18.38
2016-05-13T12:07:14.243Z,18.25
2016-05-13T12:08:14.090Z,18.25
2016-05-13T12:09:14.233Z,18.18
2016-05-13T12:10:14.251Z,18.13
2016-05-13T12:11:14.254Z,18.01
2016-05-13T12:12:14.256Z,18.18
2016-05-13T12:13:14.275Z,18.08
2016-05-13T12:14:14.293Z,17.95
2016-05-13T12:15:14.093Z,17.9
2016-05-13T12:16:14.252Z,17.78
2016-05-13T12:17:14.286Z,17.8
2016-05-13T12:18:14.507Z,17.78
2016-05-13T12:19:14.104Z,17.76
2016-05-13T12:20:14.122Z,17.7
2016-05-13T12:21:14.281Z,17.6
2016-05-13T12:22:14.127Z,17.63
2016-05-13T12:23:14.146Z,17.65
2016-05-13T12:24:14.304Z,17.59
2016-05-13T12:25:14.152Z,17.54
2016-05-13T12:26:14.326Z,17.59
2016-05-13T12:27:14.329Z,17.51
2016-05-13T12:28:14.316Z,17.65
2016-05-13T12:29:14.302Z,17.67
2016-05-13T12:30:14.337Z,17.56
2016-05-13T12:31:14.324Z,17.57
2016-05-13T12:32:14.342Z,17.41
2016-05-13T12:33:14.188Z,17.34
2016-05-13T12:34:14.332Z,17.41
2016-05-13T12:35:14.178Z,17.34
2016-05-13T12:36:14.196Z,17.34
2016-05-13T12:37:14.184Z,17.41
2016-05-13T12:38:14.342Z,17.44
2016-05-13T12:39:14.346Z,17.41
2016-05-13T12:40:14.348Z,17.41
2016-05-13T12:41:14.209Z,17.46
2016-05-13T12:42:14.198Z,17.44
2016-05-13T12:43:14.372Z,17.41
2016-05-13T12:44:14.359Z,17.33
2016-05-13T12:45:14.237Z,17.38
2016-05-13T12:46:14.395Z,17.41
2016-05-13T12:47:14.258Z,17.45
2016-05-13T12:48:14.400Z,17.59
2016-05-13T12:49:14.403Z,17.64
2016-05-13T12:50:14.391Z,17.68
2016-05-13T12:51:14.424Z,17.72
2016-05-13T12:52:14.411Z,17.72
2016-05-13T12:53:14.414Z,17.79
2016-05-13T12:54:14.244Z,17.76
2016-05-13T12:55:14.419Z,17.79